createdAt,value
2019-04-20T00:02:25.119Z,8.93
2019-04-20T00:04:57.105Z,9.28
2019-04-20T00:07:34.279Z,8.55
2019-04-20T00:10:13.068Z,10.03
2019-04-20T00:12:53.430Z,9.40
2019-04-20T00:15:16.011Z,8.65
2019-04-20T00:17:55.074Z,9.08
2019-04-20T00:20:29.626Z,9.48
2019-04-20T00:23:27.803Z,9.53
2019-04-20T00:26:22.135Z,9.78
2019-04-20T00:29:06.901Z,9.43
2019-04-20T00:31:42.094Z,9.73
2019-04-20T00:34:09.132Z,9.70
2019-04-20T00:36:36.973Z,9.15
2019-04-20T00:39:13.169Z,9.83
2019-04-20T00:41:52.142Z,9.33
2019-04-20T00:44:26.038Z,9.65
2019-04-20T00:49:46.114Z,9.33
2019-04-20T00:52:28.822Z,9.65
2019-04-20T00:54:41.543Z,8.53
2019-04-20T00:57:28.093Z,11.00
2019-04-20T01:00:11.120Z,9.58
2019-04-20T01:02:36.094Z,9.65
2019-04-20T01:05:18.067Z,10.13
2019-04-20T01:08:01.937Z,9.15
2019-04-20T01:10:38.462Z,9.60
2019-04-20T01:13:14.008Z,9.70
2019-04-20T01:15:54.072Z,9.40
2019-04-20T01:18:18.606Z,10.23
2019-04-20T01:20:53.562Z,10.55
2019-04-20T01:23:35.504Z,9.90
2019-04-20T01:26:07.486Z,10.25
2019-04-20T01:28:52.795Z,10.48
2019-04-20T01:31:25.375Z,10.80
2019-04-20T01:33:58.930Z,10.38
2019-04-20T01:36:43.007Z,11.03
2019-04-20T01:39:12.490Z,10.88
2019-04-20T01:41:32.980Z,10.45
2019-04-20T01:44:07.141Z,10.55
2019-04-20T01:46:46.699Z,10.23
2019-04-20T01:49:19.092Z,10.50
2019-04-20T01:51:57.683Z,10.58
2019-04-20T01:54:48.205Z,10.50
2019-04-20T01:57:25.636Z,10.03
2019-04-20T13:34:51.812Z,9.10
2019-04-20T13:37:26.393Z,8.73
2019-04-20T13:40:00.775Z,9.27
2019-04-20T13:42:35.194Z,9.50
2019-04-20T13:45:12.829Z,9.80
2019-04-20T13:47:45.840Z,9.43
2019-04-20T13:53:27.423Z,9.90
2019-04-20T13:56:23.524Z,9.80
2019-04-20T13:59:25.893Z,11.43
2019-04-20T14:02:20.258Z,9.90
2019-04-20T14:04:59.114Z,9.53
2019-04-20T14:07:35.568Z,10.33
2019-04-20T14:10:09.313Z,9.60
2019-04-20T14:12:57.281Z,9.90
2019-04-20T14:15:22.837Z,10.57
2019-04-20T14:17:57.189Z,9.57
2019-04-20T14:20:31.990Z,10.20
2019-04-20T14:23:07.399Z,9.20
2019-04-20T14:25:42.856Z,8.50
2019-04-20T14:28:17.091Z,8.87
2019-04-20T14:30:51.968Z,8.07
2019-04-20T14:33:33.001Z,9.60
2019-04-20T14:36:08.807Z,9.73
2019-04-20T14:38:45.362Z,8.23
2019-04-20T14:41:38.098Z,9.63
2019-04-20T14:44:16.155Z,9.40
2019-04-20T14:46:55.897Z,8.60
2019-04-20T14:49:36.760Z,8.53
2019-04-20T14:52:11.813Z,9.33
2019-04-20T14:54:45.644Z,8.77
2019-04-20T14:57:19.307Z,8.60
2019-04-20T14:59:56.733Z,7.77
2019-04-20T15:02:36.285Z,8.40
2019-04-20T15:05:12.914Z,9.00
2019-04-20T15:07:50.990Z,8.30
2019-04-20T15:10:28.906Z,8.50
2019-04-20T15:13:10.145Z,9.20
2019-04-20T15:15:50.701Z,8.80
2019-04-20T15:18:49.113Z,8.47
2019-04-20T15:21:27.238Z,9.17
2019-04-20T15:24:03.604Z,8.93
2019-04-20T15:26:42.557Z,6.90
2019-04-20T15:29:15.533Z,7.90
2019-04-20T15:31:50.129Z,7.93
2019-04-20T15:34:26.755Z,7.70
2019-04-20T15:37:00.203Z,8.20
2019-04-20T15:39:34.950Z,7.97
2019-04-20T15:42:17.111Z,7.80
2019-04-20T15:44:51.422Z,7.93
2019-04-20T15:47:25.806Z,8.03
2019-04-20T15:49:59.904Z,6.77
2019-04-20T15:52:39.944Z,7.23
2019-04-20T15:55:18.593Z,8.07
2019-04-20T15:57:44.816Z,6.53
2019-04-20T16:00:18.670Z,6.10
2019-04-20T16:03:21.407Z,6.30
2019-04-20T16:06:01.210Z,6.60
2019-04-20T16:08:36.652Z,6.63
2019-04-20T16:11:11.266Z,6.97
2019-04-20T16:13:49.908Z,7.40
2019-04-20T16:16:21.539Z,6.07
2019-04-20T16:18:55.312Z,6.63
2019-04-20T16:21:33.514Z,7.27
2019-04-20T16:24:10.740Z,6.40
2019-04-20T16:27:11.732Z,6.50
2019-04-20T16:29:45.053Z,6.47
2019-04-20T16:32:22.619Z,7.23
2019-04-20T16:34:58.259Z,6.10
2019-04-20T16:37:32.718Z,6.00
2019-04-20T16:40:07.885Z,6.67
2019-04-20T16:42:44.297Z,6.90
2019-04-20T16:45:19.132Z,6.37
2019-04-20T16:47:52.798Z,6.40
2019-04-20T16:50:26.886Z,6.73
2019-04-20T16:53:01.124Z,6.33
2019-04-20T16:55:40.964Z,6.33
2019-04-20T16:58:13.639Z,6.60
2019-04-20T17:00:47.668Z,6.47
2019-04-20T17:03:27.892Z,6.10
2019-04-20T17:05:59.993Z,6.20
2019-04-20T17:08:37.069Z,7.60
2019-04-20T17:11:13.875Z,6.13
2019-04-20T17:13:50.059Z,6.60
2019-04-20T17:16:23.821Z,5.80
2019-04-20T17:18:57.348Z,7.27
2019-04-20T17:21:32.578Z,7.60
2019-04-20T17:24:07.046Z,8.00
2019-04-20T17:26:50.757Z,8.33
2019-04-20T17:29:30.266Z,7.77
2019-04-20T17:32:13.670Z,8.73
2019-04-20T17:35:00.227Z,8.57
2019-04-20T17:37:24.616Z,6.30
2019-04-20T17:40:19.119Z,6.77
2019-04-20T17:42:47.294Z,4.40
2019-04-20T17:45:28.554Z,4.43
2019-04-20T17:48:04.679Z,4.17
2019-04-20T17:50:46.766Z,3.70
2019-04-20T17:53:28.328Z,5.57
2019-04-20T17:55:52.807Z,4.50
2019-04-20T17:58:29.845Z,4.70
2019-04-20T18:01:57.573Z,5.67
2019-04-20T18:04:53.775Z,5.43
2019-04-20T18:07:26.159Z,5.83
2019-04-20T18:09:59.024Z,6.23
2019-04-20T18:12:23.253Z,5.93
2019-04-20T18:15:00.832Z,5.60
2019-04-20T18:18:00.218Z,5.00
2019-04-20T18:20:36.830Z,5.33
2019-04-20T18:23:33.057Z,5.30
2019-04-20T18:26:17.125Z,5.43
2019-04-20T18:28:52.908Z,5.17
2019-04-20T18:31:35.548Z,5.10
2019-04-20T18:35:06.798Z,4.63
2019-04-20T18:36:54.645Z,5.10
2019-04-20T18:39:34.744Z,6.10
2019-04-20T18:42:12.191Z,7.00
2019-04-20T18:44:57.318Z,8.50
2019-04-20T18:47:35.869Z,9.70
2019-04-20T18:49:58.567Z,10.20
2019-04-20T18:52:23.993Z,10.13
2019-04-20T18:54:57.671Z,10.80
2019-04-20T18:57:33.145Z,11.00
2019-04-20T19:00:22.757Z,11.50
2019-04-20T19:02:56.054Z,10.40
2019-04-20T19:05:29.666Z,9.60
2019-04-20T19:08:09.341Z,9.63
2019-04-20T19:10:41.763Z,10.60
2019-04-20T19:13:26.684Z,9.67
2019-04-20T19:16:19.691Z,9.78
2019-04-20T19:19:04.936Z,10.60
2019-04-20T19:21:26.983Z,9.80
2019-04-20T19:24:07.577Z,10.70
2019-04-20T19:26:38.410Z,11.17
2019-04-20T19:29:22.089Z,12.25
2019-04-20T19:32:08.825Z,13.40
2019-04-20T19:34:36.546Z,14.63
2019-04-20T19:37:13.330Z,14.30
2019-04-20T19:39:50.743Z,14.23
2019-04-20T19:42:19.772Z,13.22
2019-04-20T19:44:58.004Z,14.38
2019-04-20T19:47:40.974Z,13.58
2019-04-20T19:50:25.166Z,13.50
2019-04-20T19:52:57.108Z,14.13
2019-04-20T19:55:20.752Z,13.78
2019-04-20T19:57:56.842Z,12.53
2019-04-20T20:00:16.669Z,11.78
2019-04-20T20:02:51.956Z,11.60
2019-04-20T20:05:33.700Z,12.25
2019-04-20T20:08:06.472Z,12.00
2019-04-20T20:10:39.376Z,13.62
2019-04-20T20:13:11.683Z,27.65
2019-04-20T20:15:52.517Z,15.40
2019-04-20T20:18:39.231Z,15.98
2019-04-20T20:21:12.726Z,14.58
2019-04-20T20:23:34.194Z,14.55
2019-04-20T20:26:16.493Z,16.15
2019-04-20T20:28:50.763Z,16.65
2019-04-20T20:31:29.631Z,15.80
2019-04-20T20:34:07.303Z,16.93
2019-04-20T20:36:42.231Z,17.90
2019-04-20T20:39:15.724Z,17.32
2019-04-20T20:41:53.343Z,18.10
2019-04-20T20:44:28.567Z,16.37
2019-04-20T20:47:00.803Z,16.60
2019-04-20T20:49:47.051Z,18.23
2019-04-20T20:52:17.244Z,18.60
2019-04-20T20:54:49.507Z,19.12
2019-04-20T20:57:18.246Z,19.70
2019-04-20T20:59:55.248Z,20.75
2019-04-20T21:02:33.855Z,19.10
2019-04-20T21:04:57.859Z,19.65
2019-04-20T21:07:31.291Z,34.27
2019-04-20T21:10:06.170Z,19.75
2019-04-20T21:12:46.471Z,17.82
2019-04-20T21:15:20.809Z,16.90
2019-04-20T21:18:15.628Z,17.87
2019-04-20T21:20:46.476Z,17.87
2019-04-20T21:23:16.245Z,19.82
2019-04-20T21:25:47.806Z,17.90
2019-04-20T21:28:16.042Z,16.97
2019-04-20T21:30:50.623Z,18.80
2019-04-20T21:33:29.463Z,17.17
2019-04-20T21:36:00.890Z,17.12
2019-04-20T21:38:39.327Z,16.85
2019-04-20T21:41:15.066Z,17.95
2019-04-20T21:43:46.409Z,18.52
2019-04-20T21:46:20.811Z,18.12
2019-04-20T21:49:08.201Z,18.05
2019-04-20T21:51:41.830Z,17.25
2019-04-20T21:54:05.516Z,18.32
2019-04-20T21:56:48.866Z,18.32
2019-04-20T21:59:24.130Z,17.57
2019-04-20T22:01:58.614Z,18.30
2019-04-20T22:04:27.213Z,17.37
2019-04-20T22:07:00.575Z,19.30
2019-04-20T22:09:41.391Z,18.73
2019-04-20T22:12:11.849Z,16.90
2019-04-20T22:14:50.932Z,17.75
2019-04-20T22:17:26.503Z,17.15
2019-04-20T22:20:07.506Z,15.75
2019-04-20T22:22:50.817Z,16.70
2019-04-20T22:25:23.460Z,16.15
2019-04-20T22:27:42.271Z,16.30
2019-04-20T22:30:15.577Z,17.57
2019-04-20T22:32:50.662Z,17.12
2019-04-20T22:35:26.058Z,15.88
2019-04-20T22:38:11.984Z,17.70
2019-04-20T22:40:42.940Z,17.57
2019-04-20T22:43:23.173Z,18.10
2019-04-20T22:45:53.836Z,19.90
2019-04-20T22:48:27.056Z,18.85
2019-04-20T22:51:32.780Z,20.77
2019-04-20T22:53:48.613Z,19.77
2019-04-20T22:56:26.827Z,20.12
2019-04-20T22:58:59.085Z,19.92
2019-04-20T23:01:31.044Z,20.27
2019-04-20T23:03:56.557Z,19.65
2019-04-20T23:06:35.422Z,19.48
2019-04-20T23:09:11.706Z,18.55
2019-04-20T23:11:45.178Z,18.15
2019-04-20T23:14:18.725Z,19.00
2019-04-20T23:16:53.827Z,18.50
2019-04-20T23:19:34.578Z,19.35
2019-04-20T23:22:05.333Z,20.25
2019-04-20T23:24:39.243Z,17.32
2019-04-20T23:27:20.019Z,18.87
2019-04-20T23:29:47.259Z,17.12
2019-04-20T23:32:21.318Z,18.92
2019-04-20T23:34:59.090Z,18.77
2019-04-20T23:37:33.352Z,19.57
2019-04-20T23:40:09.197Z,18.00
2019-04-20T23:42:47.646Z,18.67
2019-04-20T23:45:44.137Z,17.52
2019-04-20T23:48:23.639Z,19.55
2019-04-20T23:51:11.290Z,19.60
2019-04-20T23:53:45.263Z,18.17
2019-04-20T23:56:05.914Z,18.65
2019-04-20T23:58:44.334Z,18.65
